Time;durP1;ratioP1;P1;durP2;ratioP2;P2;SDS_P1;SDS_P2;PMS_P1;PMS_P2;Temp;Humidity;BMP_temperature;BMP_pressure;BME280_temperature;BME280_humidity;BME280_pressure;Samples;Min_cycle;Max_cycle;Signal;HPM_P1;HPM_P2
2023/01/27 00:00:22;;;;;;;18.17;9.73;;;-1.40;99.90;;;;;;4950249;28;20594;-70
2023/01/27 00:02:49;;;;;;;13.18;7.95;;;-1.50;99.90;;;;;;4950791;28;20208;-69
2023/01/27 00:05:16;;;;;;;13.02;9.55;;;-1.50;99.90;;;;;;4950520;29;20243;-69
2023/01/27 00:07:45;;;;;;;15.80;9.13;;;-1.50;99.90;;;;;;4950779;29;20691;-69
2023/01/27 00:10:15;;;;;;;16.13;8.98;;;-1.50;99.90;;;;;;4950209;28;20520;-69
2023/01/27 00:15:29;;;;;;;17.25;10.48;;;-1.50;99.90;;;;;;4950535;29;20219;-70
2023/01/27 00:17:55;;;;;;;16.13;8.85;;;-1.40;99.90;;;;;;4950018;28;20215;-70
2023/01/27 00:25:49;;;;;;;16.35;8.88;;;-1.40;99.90;;;;;;4950242;29;20375;-69
2023/01/27 00:28:21;;;;;;;17.17;7.75;;;-1.40;99.90;;;;;;4949990;28;20215;-69
2023/01/27 00:30:49;;;;;;;16.08;8.82;;;-1.40;99.90;;;;;;4950075;29;20748;-69
2023/01/27 00:33:24;;;;;;;20.10;9.07;;;-1.40;99.90;;;;;;4949513;28;20216;-69
2023/01/27 00:35:57;;;;;;;17.35;10.02;;;-1.40;99.90;;;;;;4949964;28;20223;-69
2023/01/27 00:38:23;;;;;;;15.48;8.23;;;-1.40;99.90;;;;;;4949923;29;20216;-69
2023/01/27 00:43:31;;;;;;;16.88;7.65;;;-1.40;99.90;;;;;;4950340;29;20201;-69
2023/01/27 00:45:59;;;;;;;14.15;7.43;;;-1.40;99.90;;;;;;4951471;29;20239;-69
2023/01/27 00:48:25;;;;;;;13.85;7.65;;;-1.50;99.90;;;;;;4951853;29;20208;-69
2023/01/27 00:50:52;;;;;;;16.35;8.85;;;-1.50;99.90;;;;;;4952181;29;20200;-69
2023/01/27 00:53:19;;;;;;;14.65;9.88;;;-1.50;99.90;;;;;;4952635;29;20627;-70
2023/01/27 00:55:46;;;;;;;12.25;7.63;;;-1.40;99.90;;;;;;4952173;29;20216;-71
2023/01/27 00:58:13;;;;;;;12.45;8.40;;;-1.40;99.90;;;;;;4952018;29;20209;-70
2023/01/27 01:00:40;;;;;;;17.75;9.25;;;-1.40;99.90;;;;;;4952333;29;20200;-70
2023/01/27 01:03:08;;;;;;;18.38;10.57;;;-1.40;99.90;;;;;;4952264;29;20208;-70
2023/01/27 01:05:35;;;;;;;16.65;8.10;;;-1.40;99.90;;;;;;4952344;29;20611;-70
2023/01/27 01:08:01;;;;;;;16.45;9.48;;;-1.40;99.90;;;;;;4951916;29;20227;-70
2023/01/27 01:10:28;;;;;;;14.32;7.85;;;-1.40;99.90;;;;;;4951824;29;20208;-70
2023/01/27 01:12:55;;;;;;;21.77;9.60;;;-1.50;99.90;;;;;;4951865;29;20216;-70
2023/01/27 01:15:21;;;;;;;15.10;8.80;;;-1.50;99.90;;;;;;4952191;29;20232;-70
2023/01/27 01:17:48;;;;;;;18.20;9.32;;;-1.50;99.90;;;;;;4951928;29;20205;-70
2023/01/27 01:20:16;;;;;;;15.85;8.15;;;-1.40;99.90;;;;;;4951666;29;20227;-70
2023/01/27 01:22:43;;;;;;;18.48;9.77;;;-1.40;99.90;;;;;;4952154;29;20550;-70
2023/01/27 01:25:10;;;;;;;19.02;11.15;;;-1.40;99.90;;;;;;4951680;29;20239;-70
2023/01/27 01:27:36;;;;;;;13.98;7.88;;;-1.40;99.90;;;;;;4951907;29;20212;-70
2023/01/27 01:30:03;;;;;;;14.50;7.22;;;-1.40;99.90;;;;;;4951351;29;20211;-70
2023/01/27 01:32:30;;;;;;;13.57;7.57;;;-1.40;99.90;;;;;;4951918;29;20208;-70
2023/01/27 01:34:57;;;;;;;11.00;6.65;;;-1.50;99.90;;;;;;4951964;29;20228;-70
2023/01/27 01:37:25;;;;;;;13.82;7.38;;;-1.50;99.90;;;;;;4952035;29;20212;-70
2023/01/27 01:39:51;;;;;;;11.48;7.00;;;-1.40;99.90;;;;;;4951547;29;20204;-70
2023/01/27 01:42:18;;;;;;;15.25;7.60;;;-1.40;99.90;;;;;;4951819;29;20582;-70
2023/01/27 01:44:45;;;;;;;11.48;7.15;;;-1.40;99.90;;;;;;4951827;29;20232;-70
2023/01/27 01:47:16;;;;;;;13.70;7.45;;;-1.50;99.90;;;;;;4952206;28;20226;-70
2023/01/27 01:49:46;;;;;;;10.25;6.72;;;-1.40;99.90;;;;;;4954627;29;20209;-70
2023/01/27 01:52:16;;;;;;;11.15;6.38;;;-1.50;99.90;;;;;;4955774;29;20212;-70
2023/01/27 01:54:48;;;;;;;13.35;7.72;;;-1.40;99.90;;;;;;4955529;29;20209;-70
2023/01/27 01:57:20;;;;;;;9.93;6.00;;;-1.50;99.90;;;;;;4955770;29;20201;-70
2023/01/27 01:59:52;;;;;;;14.38;7.53;;;-1.50;99.90;;;;;;4955129;29;20285;-70
2023/01/27 02:02:23;;;;;;;9.75;7.35;;;-1.50;99.90;;;;;;4955613;29;20226;-70
2023/01/27 02:04:54;;;;;;;15.48;7.18;;;-1.50;99.90;;;;;;4955112;29;20600;-70
2023/01/27 02:07:25;;;;;;;9.55;7.25;;;-1.50;99.90;;;;;;4955589;29;20204;-70
2023/01/27 02:09:56;;;;;;;11.88;6.93;;;-1.50;99.90;;;;;;4954485;28;20215;-70
2023/01/27 02:12:22;;;;;;;12.82;5.70;;;-1.50;99.90;;;;;;4955362;29;20302;-70
2023/01/27 02:14:49;;;;;;;10.77;7.32;;;-1.50;99.90;;;;;;4955081;29;20197;-70
2023/01/27 02:17:17;;;;;;;20.73;9.38;;;-1.50;99.90;;;;;;4955385;29;20216;-70
2023/01/27 02:19:54;;;;;;;18.58;8.88;;;-1.50;99.90;;;;;;4954141;29;20204;-70
2023/01/27 02:22:28;;;;;;;15.82;9.35;;;-1.50;99.90;;;;;;4955125;29;20215;-70
2023/01/27 02:25:02;;;;;;;16.77;9.15;;;-1.50;99.90;;;;;;4954988;29;20607;-70
2023/01/27 02:27:30;;;;;;;13.63;8.00;;;-1.50;99.90;;;;;;4954800;29;20203;-70
2023/01/27 02:29:57;;;;;;;10.35;5.88;;;-1.40;99.90;;;;;;4954546;29;20590;-69
2023/01/27 02:32:25;;;;;;;13.90;7.55;;;-1.40;99.90;;;;;;4954738;29;20231;-70
2023/01/27 02:34:53;;;;;;;12.15;7.15;;;-1.50;99.90;;;;;;4954848;29;20204;-70
2023/01/27 02:37:21;;;;;;;10.35;8.48;;;-1.50;99.90;;;;;;4954783;29;20699;-70
2023/01/27 02:39:51;;;;;;;12.02;6.82;;;-1.50;99.90;;;;;;4954157;29;20239;-70
2023/01/27 02:42:19;;;;;;;11.07;7.53;;;-1.50;99.90;;;;;;4954513;29;20220;-70
2023/01/27 02:44:47;;;;;;;13.68;9.15;;;-1.40;99.90;;;;;;4954255;29;20229;-70
2023/01/27 02:47:13;;;;;;;11.18;7.40;;;-1.40;99.90;;;;;;4954899;29;20215;-69
2023/01/27 02:49:40;;;;;;;15.35;8.40;;;-1.50;99.90;;;;;;4953730;29;20200;-69
2023/01/27 02:52:07;;;;;;;12.18;7.55;;;-1.50;99.90;;;;;;4954621;29;20215;-69
2023/01/27 02:54:34;;;;;;;13.23;7.57;;;-1.50;99.90;;;;;;4954222;29;20208;-69
2023/01/27 02:57:00;;;;;;;15.70;8.02;;;-1.50;99.90;;;;;;4954406;29;20224;-69
2023/01/27 02:59:27;;;;;;;10.73;6.88;;;-1.50;99.90;;;;;;4952523;28;20207;-69
2023/01/27 03:01:55;;;;;;;14.20;7.50;;;-1.50;99.90;;;;;;4954481;29;20201;-69
2023/01/27 03:04:22;;;;;;;13.93;7.60;;;-1.50;99.90;;;;;;4954417;29;20211;-69
2023/01/27 03:06:48;;;;;;;12.23;6.97;;;-1.50;99.90;;;;;;4954247;29;20228;-69
2023/01/27 03:09:15;;;;;;;7.43;5.70;;;-1.50;99.90;;;;;;4953892;28;20211;-69
2023/01/27 03:19:55;;;;;;;10.32;6.85;;;-1.50;99.90;;;;;;4953737;29;20271;-69
2023/01/27 03:22:22;;;;;;;12.18;7.35;;;-1.50;99.90;;;;;;4954044;29;20216;-69
2023/01/27 03:24:49;;;;;;;13.23;8.38;;;-1.40;99.90;;;;;;4953719;29;20228;-69
2023/01/27 03:27:15;;;;;;;12.90;6.75;;;-1.40;99.90;;;;;;4954207;29;20201;-69
2023/01/27 03:29:57;;;;;;;17.10;8.02;;;-1.40;99.90;;;;;;4953385;29;20221;-69
2023/01/27 03:32:28;;;;;;;14.15;8.10;;;-1.40;99.90;;;;;;4953954;29;20204;-69
2023/01/27 03:34:57;;;;;;;8.88;6.10;;;-1.40;99.90;;;;;;4953928;29;20679;-69
2023/01/27 03:48:24;;;;;;;7.32;5.68;;;-1.40;99.90;;;;;;4950728;29;20217;-69
2023/01/27 03:50:52;;;;;;;12.38;5.88;;;-1.40;99.90;;;;;;4951388;29;20227;-69
2023/01/27 03:53:19;;;;;;;11.85;6.50;;;-1.40;99.90;;;;;;4952944;29;20200;-69
2023/01/27 03:55:46;;;;;;;9.15;5.63;;;-1.40;99.90;;;;;;4953111;29;20228;-69
2023/01/27 03:58:19;;;;;;;13.93;7.03;;;-1.40;99.90;;;;;;4953638;29;20213;-69
2023/01/27 04:00:47;;;;;;;11.80;6.63;;;-1.40;99.90;;;;;;4953382;29;20209;-69
2023/01/27 04:08:47;;;;;;;11.85;5.68;;;-1.40;99.90;;;;;;4952913;29;20220;-69
2023/01/27 04:14:00;;;;;;;10.82;6.95;;;-1.40;99.90;;;;;;4953623;29;20207;-69
2023/01/27 04:16:29;;;;;;;9.63;5.07;;;-1.30;99.90;;;;;;4953191;29;20220;-70
2023/01/27 04:18:55;;;;;;;8.60;6.60;;;-1.30;99.90;;;;;;4952932;28;20604;-69
2023/01/27 04:21:25;;;;;;;8.40;5.15;;;-1.40;99.90;;;;;;4953391;29;20211;-69
2023/01/27 04:23:51;;;;;;;8.35;4.70;;;-1.30;99.90;;;;;;4953179;29;20243;-69
2023/01/27 04:26:18;;;;;;;8.23;4.85;;;-1.30;99.90;;;;;;4953257;29;20232;-69
2023/01/27 04:28:45;;;;;;;11.65;6.00;;;-1.30;99.90;;;;;;4952591;29;20631;-70
2023/01/27 04:31:13;;;;;;;13.05;6.25;;;-1.40;99.90;;;;;;4952944;29;20201;-69
2023/01/27 04:33:39;;;;;;;11.27;6.90;;;-1.40;99.90;;;;;;4952362;29;20208;-70
2023/01/27 04:36:06;;;;;;;8.45;5.13;;;-1.40;99.90;;;;;;4949116;29;20593;-70
2023/01/27 04:38:34;;;;;;;7.40;5.45;;;-1.30;99.90;;;;;;4951215;29;20196;-70
2023/01/27 04:41:01;;;;;;;7.93;4.80;;;-1.40;99.90;;;;;;4951928;29;20204;-71
2023/01/27 04:43:28;;;;;;;7.75;5.22;;;-1.40;99.90;;;;;;4951566;29;20205;-70
2023/01/27 04:45:54;;;;;;;10.68;6.13;;;-1.30;99.90;;;;;;4948848;29;20220;-70
2023/01/27 04:48:22;;;;;;;12.32;7.18;;;-1.30;99.90;;;;;;4951041;29;20229;-70
2023/01/27 04:50:49;;;;;;;11.38;6.03;;;-1.30;99.90;;;;;;4951222;29;20230;-69
2023/01/27 04:53:16;;;;;;;10.77;6.03;;;-1.30;99.90;;;;;;4951735;29;20216;-69
2023/01/27 04:55:48;;;;;;;13.02;5.45;;;-1.40;99.90;;;;;;4951630;29;20216;-70
2023/01/27 04:58:16;;;;;;;7.97;4.72;;;-1.30;99.90;;;;;;4951893;29;20204;-70
2023/01/27 05:00:43;;;;;;;7.25;5.20;;;-1.40;99.90;;;;;;4952019;29;20291;-70
2023/01/27 05:03:10;;;;;;;7.82;5.25;;;-1.30;99.90;;;;;;4951505;29;20255;-70
2023/01/27 05:05:37;;;;;;;6.18;4.60;;;-1.40;99.90;;;;;;4952462;29;20228;-69
2023/01/27 05:08:04;;;;;;;12.63;5.60;;;-1.40;99.90;;;;;;4952642;29;20578;-70
2023/01/27 05:10:32;;;;;;;7.32;4.63;;;-1.40;99.90;;;;;;4952004;29;20208;-70
2023/01/27 05:13:00;;;;;;;8.57;5.45;;;-1.50;99.90;;;;;;4951534;28;20710;-70
2023/01/27 05:15:28;;;;;;;8.68;5.90;;;-1.40;99.90;;;;;;4952582;29;20618;-70
2023/01/27 05:17:55;;;;;;;8.35;5.63;;;-1.50;99.90;;;;;;4951649;28;20820;-70
2023/01/27 05:20:22;;;;;;;11.77;6.78;;;-1.50;99.90;;;;;;4951785;28;20584;-70
2023/01/27 05:22:50;;;;;;;12.03;7.63;;;-1.40;99.90;;;;;;4950197;28;20463;-71
2023/01/27 05:25:17;;;;;;;12.38;7.05;;;-1.40;99.90;;;;;;4951850;29;20506;-71
2023/01/27 05:27:44;;;;;;;9.48;7.03;;;-1.40;99.90;;;;;;4951875;29;20679;-71
2023/01/27 05:30:13;;;;;;;10.55;7.30;;;-1.40;99.90;;;;;;4951669;29;20207;-72
2023/01/27 05:32:40;;;;;;;8.93;7.13;;;-1.40;99.90;;;;;;4952190;29;20608;-72
2023/01/27 05:35:07;;;;;;;9.02;6.72;;;-1.30;99.90;;;;;;4951421;29;20231;-69
2023/01/27 05:37:34;;;;;;;10.65;7.53;;;-1.30;99.90;;;;;;4951679;29;20205;-69
2023/01/27 05:40:01;;;;;;;11.43;8.35;;;-1.40;99.90;;;;;;4951596;28;20588;-69
2023/01/27 05:42:27;;;;;;;11.63;7.40;;;-1.30;99.90;;;;;;4952310;28;20204;-69
2023/01/27 05:44:54;;;;;;;11.57;7.05;;;-1.30;99.90;;;;;;4951786;29;20211;-69
2023/01/27 05:47:22;;;;;;;12.07;6.97;;;-1.40;99.90;;;;;;4952171;29;20225;-69
2023/01/27 05:49:49;;;;;;;11.88;7.68;;;-1.30;99.90;;;;;;4951408;29;20612;-69
2023/01/27 05:52:16;;;;;;;11.13;7.30;;;-1.40;99.90;;;;;;4952194;29;20227;-71
2023/01/27 05:54:42;;;;;;;14.38;8.05;;;-1.40;99.90;;;;;;4952153;29;20219;-71
2023/01/27 05:57:09;;;;;;;14.23;6.70;;;-1.40;99.90;;;;;;4952157;29;20684;-70
2023/01/27 05:59:36;;;;;;;11.52;7.45;;;-1.40;99.90;;;;;;4951644;29;20602;-70
2023/01/27 06:02:02;;;;;;;17.15;10.52;;;-1.40;99.90;;;;;;4952132;28;20205;-70
2023/01/27 06:04:30;;;;;;;10.82;7.75;;;-1.50;99.90;;;;;;4952004;29;20205;-69
2023/01/27 06:06:57;;;;;;;12.98;7.30;;;-1.40;99.90;;;;;;4951945;29;20235;-69
2023/01/27 06:09:24;;;;;;;14.23;8.73;;;-1.40;99.90;;;;;;4951635;29;20228;-70
2023/01/27 06:11:51;;;;;;;12.45;8.48;;;-1.40;99.90;;;;;;4952287;29;20204;-71
2023/01/27 06:14:18;;;;;;;12.32;8.30;;;-1.40;99.90;;;;;;4951985;29;20211;-69
2023/01/27 06:16:47;;;;;;;17.25;8.57;;;-1.40;99.90;;;;;;4951975;29;20606;-70
2023/01/27 06:19:14;;;;;;;14.65;7.40;;;-1.30;99.90;;;;;;4951265;29;20208;-69
2023/01/27 06:21:42;;;;;;;12.45;7.25;;;-1.40;99.90;;;;;;4951906;29;20209;-69
2023/01/27 06:24:08;;;;;;;12.15;7.47;;;-1.40;99.90;;;;;;4951813;29;20205;-69
2023/01/27 06:26:36;;;;;;;12.73;8.45;;;-1.30;99.90;;;;;;4951806;29;20255;-69
2023/01/27 06:29:02;;;;;;;12.15;7.18;;;-1.30;99.90;;;;;;4951314;29;20204;-69
2023/01/27 06:31:29;;;;;;;13.80;9.10;;;-1.30;99.90;;;;;;4951916;29;20205;-69
2023/01/27 06:33:56;;;;;;;16.65;8.05;;;-1.30;99.90;;;;;;4952416;28;20205;-70
2023/01/27 06:36:23;;;;;;;12.20;8.68;;;-1.20;99.90;;;;;;4955061;29;20639;-70
2023/01/27 06:38:51;;;;;;;12.15;7.38;;;-1.30;99.90;;;;;;4954763;29;20212;-70
2023/01/27 06:41:18;;;;;;;11.63;7.00;;;-1.30;99.90;;;;;;4955205;29;20211;-70
2023/01/27 06:43:45;;;;;;;12.00;7.32;;;-1.30;99.90;;;;;;4955130;29;20628;-69
2023/01/27 06:46:12;;;;;;;13.73;7.25;;;-1.40;99.90;;;;;;4954689;29;20232;-69
2023/01/27 06:48:38;;;;;;;9.00;6.35;;;-1.30;99.90;;;;;;4954529;29;20576;-69
2023/01/27 06:51:06;;;;;;;13.40;7.63;;;-1.30;99.90;;;;;;4955188;29;20204;-69
2023/01/27 06:53:33;;;;;;;14.95;7.72;;;-1.30;99.90;;;;;;4954738;29;20212;-69
2023/01/27 06:56:01;;;;;;;17.00;8.27;;;-1.40;99.90;;;;;;4954927;29;20248;-69
2023/01/27 06:58:29;;;;;;;16.35;9.45;;;-1.40;99.90;;;;;;4954318;29;20209;-70
2023/01/27 07:00:56;;;;;;;17.85;8.38;;;-1.40;99.90;;;;;;4955086;29;20231;-70
2023/01/27 07:03:23;;;;;;;14.02;7.38;;;-1.40;99.90;;;;;;4954611;29;20212;-71
2023/01/27 07:05:50;;;;;;;13.07;8.85;;;-1.50;99.90;;;;;;4954712;29;20643;-69
2023/01/27 07:08:17;;;;;;;17.40;8.43;;;-1.40;99.90;;;;;;4954238;29;20680;-69
2023/01/27 07:10:43;;;;;;;12.95;8.10;;;-1.30;99.90;;;;;;4954502;29;20211;-69
2023/01/27 07:13:13;;;;;;;14.18;7.30;;;-1.30;99.90;;;;;;4954868;29;20209;-69
2023/01/27 07:15:40;;;;;;;12.10;7.28;;;-1.30;99.90;;;;;;4954411;29;20228;-70
2023/01/27 07:18:07;;;;;;;14.88;8.95;;;-1.30;99.90;;;;;;4954488;29;20219;-70
2023/01/27 07:20:34;;;;;;;16.02;7.68;;;-1.30;99.90;;;;;;4954854;29;20237;-69
2023/01/27 07:23:02;;;;;;;16.80;9.77;;;-1.30;99.90;;;;;;4954784;29;20208;-71
2023/01/27 07:25:30;;;;;;;16.30;9.25;;;-1.30;99.90;;;;;;4954635;29;20224;-69
2023/01/27 07:27:57;;;;;;;14.90;9.45;;;-1.30;99.90;;;;;;4954837;29;20221;-70
2023/01/27 07:30:26;;;;;;;12.73;7.78;;;-1.20;99.90;;;;;;4954352;29;20209;-69
2023/01/27 07:32:54;;;;;;;14.15;8.45;;;-1.30;99.90;;;;;;4954006;29;20707;-69
2023/01/27 07:35:21;;;;;;;14.15;8.15;;;-1.30;99.90;;;;;;4954035;28;20510;-70
2023/01/27 07:37:47;;;;;;;9.55;7.07;;;-1.30;99.90;;;;;;4953956;28;20207;-69
2023/01/27 07:40:14;;;;;;;13.60;7.00;;;-1.30;99.90;;;;;;4953985;29;20204;-70
2023/01/27 07:42:41;;;;;;;13.27;8.85;;;-1.30;99.90;;;;;;4954219;29;20208;-70
2023/01/27 07:45:09;;;;;;;10.77;7.55;;;-1.30;99.90;;;;;;4954043;28;20239;-70
2023/01/27 07:47:37;;;;;;;11.98;7.10;;;-1.30;99.90;;;;;;4953994;29;20232;-70
2023/01/27 07:50:04;;;;;;;9.32;6.78;;;-1.30;99.90;;;;;;4953764;29;20201;-69
2023/01/27 07:52:31;;;;;;;14.38;8.40;;;-1.30;99.90;;;;;;4953900;29;20214;-68
2023/01/27 07:54:57;;;;;;;12.63;7.35;;;-1.20;99.90;;;;;;4953914;29;20229;-70
2023/01/27 07:57:24;;;;;;;17.33;7.70;;;-1.20;99.90;;;;;;4953852;29;20200;-71
2023/01/27 07:59:54;;;;;;;11.02;7.50;;;-1.10;99.90;;;;;;4953447;29;20576;-69
2023/01/27 08:02:21;;;;;;;13.40;7.55;;;-1.10;99.90;;;;;;4953775;28;20571;-70
2023/01/27 08:04:49;;;;;;;11.93;8.35;;;-1.10;99.90;;;;;;4953652;29;20219;-69
2023/01/27 08:07:16;;;;;;;11.70;7.28;;;-1.10;99.90;;;;;;4953655;29;20236;-70
2023/01/27 08:09:43;;;;;;;17.08;7.72;;;-1.10;99.90;;;;;;4952892;29;20213;-70
2023/01/27 08:12:09;;;;;;;12.57;8.23;;;-1.10;99.90;;;;;;4953904;29;20209;-70
2023/01/27 08:14:36;;;;;;;12.75;7.32;;;-1.10;99.90;;;;;;4953623;29;20266;-70
2023/01/27 08:17:03;;;;;;;12.73;6.82;;;-1.20;99.90;;;;;;4953304;29;20220;-70
2023/01/27 08:19:30;;;;;;;7.53;6.35;;;-1.20;99.90;;;;;;4952959;29;20215;-70
2023/01/27 08:21:58;;;;;;;11.38;6.32;;;-1.20;99.90;;;;;;4953404;29;20580;-70
2023/01/27 08:24:25;;;;;;;9.23;7.20;;;-1.20;99.90;;;;;;4953332;28;20204;-70
2023/01/27 08:26:51;;;;;;;13.25;6.60;;;-1.20;99.90;;;;;;4953417;29;20232;-70
2023/01/27 08:29:18;;;;;;;13.05;7.25;;;-1.10;99.90;;;;;;4953253;29;20723;-70
2023/01/27 08:31:45;;;;;;;9.90;5.75;;;-1.10;99.90;;;;;;4953353;29;20216;-71
2023/01/27 08:34:11;;;;;;;10.10;5.72;;;-1.10;99.90;;;;;;4953672;29;20205;-71
2023/01/27 08:36:42;;;;;;;14.13;6.07;;;-1.10;99.90;;;;;;4953074;29;20700;-70
2023/01/27 08:39:11;;;;;;;11.38;6.50;;;-1.10;99.90;;;;;;4952776;29;20209;-69
2023/01/27 08:41:37;;;;;;;13.15;6.70;;;-1.10;99.90;;;;;;4953047;29;20212;-70
2023/01/27 08:44:04;;;;;;;9.98;6.60;;;-1.10;99.90;;;;;;4952944;29;20208;-69
2023/01/27 08:46:31;;;;;;;11.32;6.13;;;-1.10;99.90;;;;;;4960687;28;20235;-69
2023/01/27 08:48:58;;;;;;;9.95;6.57;;;-1.10;99.90;;;;;;4953698;28;20759;-73
2023/01/27 08:51:25;;;;;;;15.40;7.45;;;-1.10;99.90;;;;;;4952362;29;20602;-69
2023/01/27 08:53:51;;;;;;;10.27;5.80;;;-1.10;99.90;;;;;;4951794;29;20211;-70
2023/01/27 08:56:20;;;;;;;11.90;6.20;;;-1.10;99.90;;;;;;4951102;29;20232;-70
2023/01/27 08:58:47;;;;;;;11.98;5.60;;;-1.10;99.90;;;;;;4951695;28;20215;-69
2023/01/27 09:01:15;;;;;;;12.57;6.30;;;-1.20;99.90;;;;;;4951270;28;20295;-69
2023/01/27 09:03:42;;;;;;;8.80;5.80;;;-1.10;99.90;;;;;;4951826;29;20384;-69
2023/01/27 09:06:10;;;;;;;12.15;6.50;;;-1.10;99.90;;;;;;4952627;29;20284;-69
2023/01/27 09:08:37;;;;;;;11.52;5.97;;;-1.10;99.90;;;;;;4951181;29;20287;-70
2023/01/27 09:11:11;;;;;;;10.45;6.28;;;-1.10;99.90;;;;;;4952029;29;20675;-70
2023/01/27 09:13:39;;;;;;;8.70;6.07;;;-1.10;99.90;;;;;;4951086;29;20209;-69
2023/01/27 09:16:07;;;;;;;9.63;5.75;;;-1.10;99.90;;;;;;4951464;29;20235;-69
2023/01/27 09:18:35;;;;;;;9.82;5.20;;;-1.10;99.90;;;;;;4950762;29;20211;-70
2023/01/27 09:21:04;;;;;;;11.13;6.05;;;-1.10;99.90;;;;;;4952381;29;20205;-71
2023/01/27 09:23:31;;;;;;;9.77;6.40;;;-1.10;99.90;;;;;;4951713;29;20235;-71
2023/01/27 09:25:58;;;;;;;7.93;5.63;;;-1.00;99.90;;;;;;4952138;29;20224;-70
2023/01/27 09:28:24;;;;;;;10.30;6.78;;;-1.00;99.90;;;;;;4951375;29;20231;-70
2023/01/27 09:30:57;;;;;;;8.68;4.85;;;-1.00;99.90;;;;;;4951044;29;20204;-69
2023/01/27 09:33:24;;;;;;;8.52;5.25;;;-1.00;99.90;;;;;;4951743;29;20676;-69
2023/01/27 09:35:57;;;;;;;9.77;5.40;;;-1.00;99.90;;;;;;4951405;29;20223;-69
2023/01/27 09:38:26;;;;;;;11.50;5.82;;;-1.10;99.90;;;;;;4950378;29;20231;-70
2023/01/27 09:41:08;;;;;;;6.57;4.65;;;-1.10;99.90;;;;;;4951003;28;20224;-70
2023/01/27 09:43:48;;;;;;;9.63;5.95;;;-1.00;99.90;;;;;;4951431;29;20211;-70
2023/01/27 09:46:30;;;;;;;15.52;6.22;;;-1.00;99.90;;;;;;4950896;29;20598;-69
2023/01/27 09:49:14;;;;;;;7.07;5.03;;;-1.00;99.90;;;;;;4951320;29;20204;-69
2023/01/27 09:51:54;;;;;;;7.40;5.07;;;-0.90;99.90;;;;;;4950171;28;20211;-69
2023/01/27 09:54:31;;;;;;;11.55;5.55;;;-0.90;99.90;;;;;;4951697;29;20211;-69
2023/01/27 09:57:09;;;;;;;9.35;6.05;;;-0.90;99.90;;;;;;4951281;29;20230;-69
2023/01/27 09:59:52;;;;;;;12.13;6.63;;;-0.90;99.90;;;;;;4954420;28;20582;-69
2023/01/27 10:02:47;;;;;;;8.63;5.93;;;-0.90;99.90;;;;;;4951204;29;20208;-69
2023/01/27 10:05:48;;;;;;;9.35;5.30;;;-1.00;99.90;;;;;;4919298;29;20305;-69
2023/01/27 10:08:48;;;;;;;11.02;5.90;;;-0.90;99.90;;;;;;4905344;28;20235;-70
2023/01/27 10:11:22;;;;;;;11.82;6.00;;;-0.90;99.90;;;;;;4952538;29;20215;-71
2023/01/27 10:13:58;;;;;;;9.20;6.20;;;-0.90;99.90;;;;;;4955458;29;20680;-70
2023/01/27 10:16:52;;;;;;;13.57;6.43;;;-0.90;99.90;;;;;;4954749;29;20220;-69
2023/01/27 10:19:39;;;;;;;15.45;7.50;;;-0.90;99.90;;;;;;4948528;29;20205;-69
2023/01/27 10:22:18;;;;;;;9.70;4.72;;;-0.80;99.90;;;;;;4954716;29;20212;-69
2023/01/27 10:24:58;;;;;;;8.38;5.90;;;-0.80;99.90;;;;;;4953900;28;20200;-69
2023/01/27 10:27:26;;;;;;;11.32;7.32;;;-0.80;99.90;;;;;;4953921;29;20228;-69
2023/01/27 10:29:58;;;;;;;16.70;7.47;;;-0.80;99.90;;;;;;4954385;29;20581;-69
2023/01/27 10:32:27;;;;;;;11.68;6.45;;;-0.70;99.90;;;;;;4954829;28;20364;-69
2023/01/27 10:35:08;;;;;;;13.30;8.18;;;-0.70;99.90;;;;;;4971030;28;20200;-70
2023/01/27 10:37:46;;;;;;;13.27;7.63;;;-0.70;99.90;;;;;;4954038;29;20232;-70
2023/01/27 10:40:20;;;;;;;16.95;6.85;;;-0.70;99.90;;;;;;4953959;29;20204;-70
2023/01/27 10:42:57;;;;;;;7.40;5.80;;;-0.80;99.90;;;;;;4953993;29;20210;-70
2023/01/27 10:45:28;;;;;;;13.45;7.40;;;-0.80;99.90;;;;;;4953804;28;20232;-70
2023/01/27 10:48:06;;;;;;;17.30;8.80;;;-0.80;99.90;;;;;;4958887;28;20227;-70
2023/01/27 10:50:38;;;;;;;13.18;6.40;;;-0.90;99.90;;;;;;4973321;28;20208;-70
2023/01/27 10:53:11;;;;;;;12.40;6.45;;;-0.80;99.90;;;;;;4974013;28;20210;-70
2023/01/27 10:55:45;;;;;;;11.60;7.53;;;-0.80;99.90;;;;;;4973376;28;20646;-70
2023/01/27 10:58:19;;;;;;;12.35;6.78;;;-0.70;99.90;;;;;;4974146;28;20834;-70
2023/01/27 11:00:50;;;;;;;10.38;7.20;;;-0.60;99.90;;;;;;4973557;28;20231;-70
2023/01/27 11:03:22;;;;;;;10.60;5.80;;;-0.60;99.90;;;;;;4973480;28;20214;-70
2023/01/27 11:05:53;;;;;;;10.43;5.03;;;-0.60;99.90;;;;;;4973030;28;20243;-70
2023/01/27 11:08:23;;;;;;;13.15;7.47;;;-0.60;99.90;;;;;;4973010;28;20228;-70
2023/01/27 11:13:39;;;;;;;10.88;6.00;;;-0.60;99.90;;;;;;4973222;28;20218;-70
2023/01/27 11:16:13;;;;;;;12.85;6.07;;;-0.50;99.90;;;;;;4973354;28;20219;-70
2023/01/27 11:18:42;;;;;;;15.02;7.13;;;-0.50;99.90;;;;;;4972686;28;20204;-69
2023/01/27 11:21:17;;;;;;;10.07;6.13;;;-0.40;99.90;;;;;;4972154;28;20200;-70
2023/01/27 11:23:47;;;;;;;9.70;5.90;;;-0.30;99.90;;;;;;4972962;28;20226;-71
2023/01/27 11:26:24;;;;;;;13.75;5.80;;;-0.30;99.90;;;;;;4973219;28;20241;-71
2023/01/27 11:28:59;;;;;;;9.32;4.90;;;-0.30;99.90;;;;;;4971942;28;20290;-71
2023/01/27 11:31:37;;;;;;;7.70;4.70;;;-0.40;99.90;;;;;;4973359;28;20207;-71
2023/01/27 11:34:10;;;;;;;13.88;6.25;;;-0.40;99.90;;;;;;4972942;28;20211;-70
2023/01/27 11:36:38;;;;;;;10.55;5.90;;;-0.40;99.90;;;;;;4972686;28;20647;-70
2023/01/27 11:39:05;;;;;;;8.70;6.07;;;-0.30;99.90;;;;;;4972763;28;20196;-70
2023/01/27 11:41:35;;;;;;;10.65;6.05;;;-0.40;99.90;;;;;;4972065;28;20235;-70
2023/01/27 11:44:07;;;;;;;11.27;6.70;;;-0.50;99.90;;;;;;4972927;28;20204;-71
2023/01/27 11:46:35;;;;;;;11.45;5.55;;;-0.50;99.90;;;;;;4972548;28;20227;-70
2023/01/27 11:49:02;;;;;;;9.57;4.63;;;-0.40;99.90;;;;;;4972452;28;20222;-71
2023/01/27 11:51:36;;;;;;;8.73;5.90;;;-0.40;99.90;;;;;;4972159;28;20210;-71
2023/01/27 11:54:10;;;;;;;10.52;5.65;;;-0.40;99.90;;;;;;4972989;28;20211;-71
2023/01/27 11:56:39;;;;;;;7.75;5.78;;;-0.30;99.90;;;;;;4972120;28;20231;-71
2023/01/27 11:59:10;;;;;;;12.35;6.30;;;-0.30;99.90;;;;;;4972270;28;20207;-71
2023/01/27 12:01:45;;;;;;;12.40;5.53;;;-0.30;99.90;;;;;;4972841;28;20591;-71
2023/01/27 12:04:18;;;;;;;5.18;4.68;;;-0.30;99.90;;;;;;4972850;28;20218;-71
2023/01/27 12:06:49;;;;;;;7.15;5.13;;;-0.30;99.90;;;;;;4973267;28;20220;-71
2023/01/27 12:09:35;;;;;;;13.98;7.35;;;-0.30;99.90;;;;;;4972537;28;20909;-71
2023/01/27 12:12:20;;;;;;;11.13;4.95;;;-0.20;99.90;;;;;;4972916;28;20698;-71
2023/01/27 12:14:49;;;;;;;15.73;5.85;;;-0.20;99.90;;;;;;4972607;28;20234;-71
2023/01/27 12:17:22;;;;;;;12.13;6.40;;;-0.20;99.90;;;;;;4972681;28;20215;-71
2023/01/27 12:19:49;;;;;;;17.73;8.50;;;-0.20;99.90;;;;;;4971915;28;20215;-70
2023/01/27 12:22:24;;;;;;;7.82;4.63;;;-0.10;99.90;;;;;;4972913;28;20204;-70
2023/01/27 12:24:56;;;;;;;11.40;5.32;;;-0.10;99.90;;;;;;4973145;28;20206;-70
2023/01/27 12:27:25;;;;;;;12.13;5.80;;;-0.10;99.90;;;;;;4972654;28;20204;-70
2023/01/27 12:29:55;;;;;;;7.70;4.65;;;-0.10;99.90;;;;;;4971583;28;20200;-70
2023/01/27 12:32:27;;;;;;;8.95;5.85;;;-0.10;99.90;;;;;;4971204;28;20210;-70
2023/01/27 12:34:55;;;;;;;11.95;6.57;;;0.00;99.90;;;;;;4972007;28;20583;-70
2023/01/27 12:37:26;;;;;;;7.38;5.10;;;0.00;99.90;;;;;;4971717;28;20240;-70
2023/01/27 12:39:59;;;;;;;9.02;4.55;;;0.00;99.90;;;;;;4970985;28;20884;-70
2023/01/27 12:42:33;;;;;;;9.52;5.28;;;-0.10;99.90;;;;;;4971281;28;20243;-70
2023/01/27 12:45:01;;;;;;;9.88;4.85;;;-0.10;99.90;;;;;;4971413;28;20251;-70
2023/01/27 12:47:29;;;;;;;8.23;5.53;;;0.00;99.90;;;;;;4971504;28;20216;-71
2023/01/27 12:50:20;;;;;;;8.82;4.90;;;0.00;99.90;;;;;;4953277;28;20209;-70
2023/01/27 12:52:52;;;;;;;12.85;5.40;;;0.00;99.90;;;;;;4952174;29;20201;-70
2023/01/27 12:55:31;;;;;;;8.07;4.55;;;0.00;99.90;;;;;;4952081;29;20232;-69
2023/01/27 12:57:58;;;;;;;7.22;4.43;;;0.10;99.90;;;;;;4952026;29;20216;-72
2023/01/27 13:00:26;;;;;;;6.25;4.95;;;0.10;99.90;;;;;;4951875;29;20201;-71
2023/01/27 13:03:00;;;;;;;10.27;6.38;;;0.00;99.90;;;;;;4969071;28;20761;-71
2023/01/27 13:05:26;;;;;;;11.57;5.15;;;0.10;99.90;;;;;;4971292;28;20223;-70
2023/01/27 13:07:53;;;;;;;10.50;6.55;;;0.00;99.90;;;;;;4970944;28;20220;-71
2023/01/27 13:10:22;;;;;;;7.70;5.30;;;0.00;99.90;;;;;;4970741;28;20210;-71
2023/01/27 13:12:53;;;;;;;9.98;6.43;;;0.00;99.90;;;;;;4970978;28;20788;-70
2023/01/27 13:15:22;;;;;;;14.15;6.40;;;0.10;99.90;;;;;;4971508;28;20226;-70
2023/01/27 13:17:51;;;;;;;10.88;5.90;;;0.20;99.90;;;;;;4970217;28;20208;-72
2023/01/27 13:20:23;;;;;;;10.38;5.40;;;0.20;99.90;;;;;;4971190;28;20200;-70
2023/01/27 13:22:53;;;;;;;9.57;5.53;;;0.20;99.90;;;;;;4971516;28;20792;-70
2023/01/27 13:25:23;;;;;;;9.10;6.25;;;0.20;99.90;;;;;;4971377;28;20231;-70
2023/01/27 13:27:56;;;;;;;14.63;6.65;;;0.20;99.90;;;;;;4971104;28;20211;-69
2023/01/27 13:30:28;;;;;;;11.23;6.75;;;0.20;99.90;;;;;;4970656;28;20211;-71
2023/01/27 13:33:00;;;;;;;11.85;6.20;;;0.20;99.90;;;;;;4970920;28;20215;-71